Time;durP1;ratioP1;P1;durP2;ratioP2;P2;SDS_P1;SDS_P2;PMS_P1;PMS_P2;Temp;Humidity;BMP_temperature;BMP_pressure;BME280_temperature;BME280_humidity;BME280_pressure;Samples;Min_cycle;Max_cycle;Signal;HPM_P1;HPM_P2
2023/05/01 00:00:48;;;;;;;11.23;5.25;;;8.80;99.90;;;;;;4992792;28;20194;-64
2023/05/01 00:03:14;;;;;;;8.00;4.53;;;8.80;99.90;;;;;;4977706;28;20467;-64
2023/05/01 00:05:40;;;;;;;9.27;4.78;;;8.80;99.90;;;;;;5007423;28;20213;-64
2023/05/01 00:08:06;;;;;;;11.50;6.00;;;8.80;99.90;;;;;;5023875;28;20466;-64
2023/05/01 00:10:35;;;;;;;16.58;7.18;;;8.80;99.90;;;;;;5026970;28;20296;-64
2023/05/01 00:13:01;;;;;;;14.93;7.03;;;8.70;99.90;;;;;;5024792;28;20447;-65
2023/05/01 00:15:27;;;;;;;9.25;5.45;;;8.60;99.90;;;;;;4990689;28;20041;-64
2023/05/01 00:17:53;;;;;;;17.65;6.65;;;8.60;99.90;;;;;;5007344;28;20053;-65
2023/05/01 00:20:19;;;;;;;11.45;6.40;;;8.60;99.90;;;;;;4991132;28;20056;-64
2023/05/01 00:22:44;;;;;;;11.77;6.40;;;8.50;99.90;;;;;;4978738;28;20045;-64
2023/05/01 00:25:10;;;;;;;13.45;7.40;;;8.40;99.90;;;;;;4977304;28;20088;-65
2023/05/01 00:27:36;;;;;;;11.02;6.97;;;8.40;99.90;;;;;;5009606;28;20037;-64
2023/05/01 00:30:02;;;;;;;11.35;7.13;;;8.30;99.90;;;;;;5024139;28;20053;-65
2023/05/01 00:32:28;;;;;;;11.48;6.68;;;8.30;99.90;;;;;;5010966;28;20288;-64
2023/05/01 00:34:56;;;;;;;13.30;6.55;;;8.20;99.90;;;;;;5007678;28;20244;-65
2023/05/01 00:37:23;;;;;;;12.57;6.30;;;8.10;99.90;;;;;;4976255;28;20088;-64
2023/05/01 00:39:50;;;;;;;13.75;7.05;;;8.10;99.90;;;;;;4976684;28;20136;-65
2023/05/01 00:42:15;;;;;;;12.80;6.55;;;8.20;99.90;;;;;;5026767;28;20482;-64
2023/05/01 00:44:41;;;;;;;15.35;7.43;;;8.10;99.90;;;;;;4979290;28;20772;-64
2023/05/01 00:47:07;;;;;;;13.10;7.93;;;8.10;99.90;;;;;;4992721;28;20046;-63
2023/05/01 00:49:32;;;;;;;15.98;7.53;;;8.10;99.90;;;;;;4998166;28;20080;-64
2023/05/01 00:51:58;;;;;;;10.95;6.93;;;8.20;99.90;;;;;;4998578;28;20038;-64
2023/05/01 00:54:27;;;;;;;14.40;6.90;;;8.20;99.90;;;;;;4976999;28;20357;-64
2023/05/01 00:56:52;;;;;;;14.73;7.32;;;8.20;99.90;;;;;;4995034;28;20353;-64
2023/05/01 00:59:18;;;;;;;11.90;7.22;;;8.20;99.90;;;;;;4975813;28;20045;-64
2023/05/01 01:01:44;;;;;;;13.85;7.95;;;8.20;99.90;;;;;;4979040;28;20454;-65
2023/05/01 01:04:10;;;;;;;15.20;7.50;;;8.20;99.90;;;;;;4997377;28;20050;-64
2023/05/01 01:06:52;;;;;;;13.57;7.45;;;8.20;99.90;;;;;;5024954;28;20041;-63
2023/05/01 01:09:45;;;;;;;14.05;6.28;;;8.10;99.90;;;;;;5025035;28;20564;-64
2023/05/01 01:12:12;;;;;;;14.05;5.78;;;8.10;99.90;;;;;;4976884;28;20034;-64
2023/05/01 01:15:17;;;;;;;9.23;5.60;;;8.10;99.90;;;;;;4982151;28;20045;-64
2023/05/01 01:17:43;;;;;;;11.00;5.60;;;8.10;99.90;;;;;;4989606;28;20235;-64
2023/05/01 01:20:14;;;;;;;11.10;5.78;;;8.10;99.90;;;;;;4979816;28;20249;-64
2023/05/01 01:22:46;;;;;;;13.90;5.70;;;8.10;99.90;;;;;;4991321;28;20087;-63
2023/05/01 01:25:49;;;;;;;14.00;6.10;;;8.10;99.90;;;;;;4987058;28;20114;-64
2023/05/01 01:28:36;;;;;;;12.35;6.25;;;8.10;99.90;;;;;;4988160;28;20108;-65
2023/05/01 01:31:25;;;;;;;15.20;6.63;;;8.00;99.90;;;;;;4986533;28;20042;-64
2023/05/01 01:34:14;;;;;;;19.25;7.43;;;7.90;99.90;;;;;;4987888;28;20042;-64
2023/05/01 01:37:10;;;;;;;15.98;7.63;;;7.90;99.90;;;;;;4989390;28;20165;-64
2023/05/01 01:39:58;;;;;;;16.35;7.50;;;7.80;99.90;;;;;;4993373;28;20328;-65
2023/05/01 01:42:35;;;;;;;15.55;7.47;;;7.70;99.90;;;;;;4981229;28;20476;-65
2023/05/01 01:45:09;;;;;;;11.98;7.22;;;7.70;99.90;;;;;;4978169;28;20081;-66
2023/05/01 01:47:37;;;;;;;11.10;7.07;;;7.60;99.90;;;;;;4993510;28;20037;-64
2023/05/01 01:50:06;;;;;;;12.73;6.65;;;7.50;99.90;;;;;;5023975;28;20466;-65
2023/05/01 01:52:34;;;;;;;13.65;6.50;;;7.50;99.90;;;;;;4997419;28;20052;-64
2023/05/01 01:55:24;;;;;;;10.98;7.15;;;7.40;99.90;;;;;;5022181;28;20033;-64
2023/05/01 01:57:51;;;;;;;11.85;6.25;;;7.30;99.90;;;;;;5024416;28;20038;-64
2023/05/01 02:00:17;;;;;;;14.05;7.18;;;7.30;99.90;;;;;;4992138;28;20052;-64
2023/05/01 02:02:44;;;;;;;11.50;6.95;;;7.20;99.90;;;;;;5008355;28;20269;-65
2023/05/01 02:05:14;;;;;;;10.07;7.10;;;7.20;99.90;;;;;;4986665;28;20452;-65
2023/05/01 02:07:42;;;;;;;12.90;8.13;;;7.10;99.90;;;;;;4995666;28;20064;-66
2023/05/01 02:10:13;;;;;;;19.58;8.45;;;7.10;99.90;;;;;;4994976;28;20269;-64
2023/05/01 02:12:44;;;;;;;13.93;8.18;;;7.10;99.90;;;;;;4994561;28;20296;-64
2023/05/01 02:15:11;;;;;;;15.70;8.60;;;7.10;99.90;;;;;;4995644;28;20496;-64
2023/05/01 02:17:40;;;;;;;13.98;8.23;;;7.00;99.90;;;;;;4998171;28;20076;-64
2023/05/01 02:20:08;;;;;;;17.33;9.40;;;7.00;99.90;;;;;;4996844;28;20045;-64
2023/05/01 02:22:36;;;;;;;17.70;9.00;;;7.00;99.90;;;;;;4989267;28;20449;-65
2023/05/01 02:25:03;;;;;;;15.45;8.02;;;7.00;99.90;;;;;;5026062;28;20493;-65
2023/05/01 02:27:37;;;;;;;15.48;9.02;;;7.00;99.90;;;;;;5024039;28;20045;-64
2023/05/01 02:30:04;;;;;;;16.67;9.20;;;7.00;99.90;;;;;;4994378;28;20685;-64
2023/05/01 02:32:30;;;;;;;20.80;9.90;;;7.10;99.90;;;;;;4994578;28;20116;-64
2023/05/01 02:34:56;;;;;;;15.57;8.57;;;7.10;99.90;;;;;;4999412;28;20061;-64
2023/05/01 02:37:22;;;;;;;18.08;9.50;;;7.00;99.90;;;;;;4997166;28;21521;-65
2023/05/01 02:39:48;;;;;;;20.45;9.75;;;7.00;99.90;;;;;;4997040;28;20531;-64
2023/05/01 02:42:16;;;;;;;14.10;10.30;;;7.00;99.90;;;;;;4994680;28;20265;-65
2023/05/01 02:44:54;;;;;;;19.00;10.45;;;7.00;99.90;;;;;;4993582;28;20843;-65
2023/05/01 02:47:22;;;;;;;19.48;10.88;;;6.90;99.90;;;;;;4995640;28;20056;-64
2023/05/01 02:49:49;;;;;;;22.58;11.30;;;6.90;99.90;;;;;;4998528;28;20064;-65
2023/05/01 02:52:17;;;;;;;19.90;11.18;;;6.90;99.90;;;;;;4962408;28;20048;-64
2023/05/01 02:54:44;;;;;;;22.73;11.13;;;6.80;99.90;;;;;;4995316;28;20163;-64
2023/05/01 02:57:11;;;;;;;15.70;10.23;;;6.90;99.90;;;;;;4998082;28;20049;-64
2023/05/01 02:59:37;;;;;;;15.75;9.82;;;6.90;99.90;;;;;;4994149;28;20053;-64
2023/05/01 03:02:03;;;;;;;16.00;9.73;;;6.80;99.90;;;;;;4993349;28;20038;-65
2023/05/01 03:04:29;;;;;;;15.95;9.85;;;6.80;99.90;;;;;;4994516;28;20352;-64
2023/05/01 03:06:55;;;;;;;15.93;8.60;;;6.70;99.90;;;;;;5009867;28;20050;-64
2023/05/01 03:09:21;;;;;;;13.88;7.90;;;6.60;99.90;;;;;;4992477;28;20058;-64
2023/05/01 03:11:47;;;;;;;16.63;8.10;;;6.70;99.90;;;;;;4979215;28;20041;-64
2023/05/01 03:14:13;;;;;;;12.82;6.50;;;6.70;99.90;;;;;;4975639;28;20589;-64
2023/05/01 03:16:39;;;;;;;9.98;6.70;;;6.80;99.90;;;;;;4992308;28;20099;-65
2023/05/01 03:19:05;;;;;;;14.15;6.10;;;6.90;99.90;;;;;;4994950;28;20878;-64
2023/05/01 03:21:31;;;;;;;10.35;6.60;;;7.00;99.90;;;;;;5027907;28;20303;-64
2023/05/01 03:23:57;;;;;;;12.20;6.50;;;7.00;99.90;;;;;;4996496;28;20768;-64
2023/05/01 03:26:23;;;;;;;13.20;7.15;;;7.10;99.90;;;;;;4995142;28;20038;-65
2023/05/01 03:28:49;;;;;;;7.70;6.32;;;7.10;99.90;;;;;;4983489;28;20053;-64
2023/05/01 03:31:14;;;;;;;13.50;6.95;;;7.10;99.90;;;;;;4994106;28;20045;-65
2023/05/01 03:33:40;;;;;;;11.90;6.57;;;7.10;99.90;;;;;;4992011;28;20452;-64
2023/05/01 03:36:08;;;;;;;13.85;7.50;;;7.10;99.90;;;;;;4977061;28;20052;-65
2023/05/01 03:38:34;;;;;;;10.55;7.47;;;7.10;99.90;;;;;;5024273;28;20139;-64
2023/05/01 03:41:00;;;;;;;9.93;5.57;;;7.10;99.90;;;;;;5027575;28;20045;-64
2023/05/01 03:43:25;;;;;;;11.15;7.05;;;7.20;99.90;;;;;;4974666;28;20064;-64
2023/05/01 03:45:51;;;;;;;14.35;7.60;;;7.20;99.90;;;;;;4977593;28;20128;-64
2023/05/01 03:48:18;;;;;;;14.93;8.38;;;7.20;99.90;;;;;;4989696;28;20104;-64
2023/05/01 03:50:44;;;;;;;10.38;6.65;;;7.20;99.90;;;;;;4993694;28;20387;-65
2023/05/01 03:53:09;;;;;;;14.52;7.38;;;7.10;99.90;;;;;;5027008;28;20665;-64
2023/05/01 03:55:35;;;;;;;15.38;7.18;;;7.10;99.90;;;;;;4991689;28;20069;-64
2023/05/01 03:58:01;;;;;;;12.82;6.47;;;7.10;99.90;;;;;;4978118;28;20065;-66
2023/05/01 04:00:27;;;;;;;11.65;7.05;;;7.20;99.90;;;;;;5026497;28;20045;-65
2023/05/01 04:02:52;;;;;;;10.27;5.88;;;7.20;99.90;;;;;;5022597;28;20143;-65
2023/05/01 04:05:20;;;;;;;14.23;7.30;;;7.20;99.90;;;;;;5006532;28;20187;-64
2023/05/01 04:07:46;;;;;;;10.77;6.32;;;7.20;99.90;;;;;;4976979;28;20259;-65
2023/05/01 04:10:12;;;;;;;12.95;7.05;;;7.20;99.90;;;;;;4994099;28;20052;-64
2023/05/01 04:12:37;;;;;;;12.93;6.80;;;7.20;99.90;;;;;;4988167;28;20044;-65
2023/05/01 04:15:03;;;;;;;14.48;7.80;;;7.20;99.90;;;;;;4991720;28;20808;-64
2023/05/01 04:17:30;;;;;;;13.38;7.35;;;7.20;99.90;;;;;;5027053;28;20045;-64
2023/05/01 04:19:56;;;;;;;12.85;7.88;;;7.30;99.90;;;;;;4975588;28;20053;-64
2023/05/01 04:22:22;;;;;;;12.27;7.43;;;7.30;99.90;;;;;;5007250;28;20642;-65
2023/05/01 04:24:48;;;;;;;12.65;7.50;;;7.30;99.90;;;;;;4978928;28;20254;-64
2023/05/01 04:27:14;;;;;;;14.40;8.23;;;7.20;99.90;;;;;;5007634;28;20096;-64
2023/05/01 04:29:40;;;;;;;11.13;7.38;;;7.30;99.90;;;;;;4979473;28;20201;-64
2023/05/01 04:32:06;;;;;;;11.80;7.25;;;7.30;99.90;;;;;;4976702;28;20500;-65
2023/05/01 04:34:32;;;;;;;15.10;7.65;;;7.30;99.90;;;;;;4979834;28;20295;-65
2023/05/01 04:36:58;;;;;;;12.88;7.40;;;7.30;99.90;;;;;;5027016;28;20148;-64
2023/05/01 04:39:24;;;;;;;10.23;6.63;;;7.30;99.90;;;;;;5008628;28;20046;-64
2023/05/01 04:41:50;;;;;;;12.93;6.88;;;7.30;99.90;;;;;;4996036;28;20073;-64
2023/05/01 04:44:15;;;;;;;13.10;7.55;;;7.30;99.90;;;;;;4992423;28;20281;-65
2023/05/01 04:46:41;;;;;;;12.52;6.28;;;7.30;99.90;;;;;;4974049;28;20049;-64
2023/05/01 04:49:08;;;;;;;10.48;6.60;;;7.40;99.90;;;;;;4991814;28;20037;-65
2023/05/01 04:51:34;;;;;;;14.20;7.82;;;7.50;99.90;;;;;;5002605;28;20038;-65
2023/05/01 04:53:59;;;;;;;12.20;7.25;;;7.50;99.90;;;;;;5009081;28;20377;-64
2023/05/01 04:56:25;;;;;;;9.40;6.78;;;7.60;99.90;;;;;;4962126;28;20132;-64
2023/05/01 04:58:51;;;;;;;12.85;7.22;;;7.70;99.90;;;;;;4966047;28;20096;-65
2023/05/01 05:01:17;;;;;;;11.48;6.88;;;7.70;99.90;;;;;;4999966;28;20499;-65
2023/05/01 05:03:42;;;;;;;11.93;7.00;;;7.70;99.90;;;;;;4991019;28;20087;-63
2023/05/01 05:06:08;;;;;;;12.48;8.40;;;7.80;99.90;;;;;;4990640;28;20883;-65
2023/05/01 05:08:34;;;;;;;11.57;7.13;;;7.90;99.90;;;;;;5006795;28;20680;-64
2023/05/01 05:11:00;;;;;;;13.52;7.70;;;7.90;99.90;;;;;;4993213;28;20050;-64
2023/05/01 05:13:26;;;;;;;12.77;8.02;;;8.00;99.90;;;;;;4978460;28;20052;-63
2023/05/01 05:15:52;;;;;;;14.80;7.97;;;8.10;99.90;;;;;;4990157;28;20121;-64
2023/05/01 05:18:18;;;;;;;12.50;7.45;;;8.10;99.90;;;;;;4995239;28;20449;-63
2023/05/01 05:20:44;;;;;;;12.30;7.00;;;8.10;99.90;;;;;;5028409;28;20038;-65
2023/05/01 05:23:10;;;;;;;14.25;7.82;;;8.30;99.90;;;;;;4978942;28;20105;-65
2023/05/01 05:25:36;;;;;;;14.57;7.38;;;8.40;99.90;;;;;;4976269;28;20372;-65
2023/05/01 05:28:02;;;;;;;13.07;7.60;;;8.50;99.90;;;;;;5013408;28;20109;-65
2023/05/01 05:30:28;;;;;;;12.88;7.78;;;8.60;99.90;;;;;;4995090;28;20048;-64
2023/05/01 05:32:54;;;;;;;12.75;6.57;;;8.90;99.90;;;;;;4967453;28;20192;-65
2023/05/01 05:35:20;;;;;;;11.05;6.47;;;9.20;99.90;;;;;;4995198;28;20037;-65
2023/05/01 05:37:46;;;;;;;9.77;6.32;;;9.30;99.90;;;;;;4994640;28;20041;-65
2023/05/01 05:40:12;;;;;;;12.32;7.00;;;9.40;99.90;;;;;;4994904;28;20050;-64
2023/05/01 05:42:37;;;;;;;15.00;8.27;;;9.50;99.90;;;;;;5017348;28;20041;-64
2023/05/01 05:45:04;;;;;;;13.85;7.07;;;9.50;99.90;;;;;;4985922;28;20091;-65
2023/05/01 05:47:30;;;;;;;16.98;7.13;;;9.60;99.90;;;;;;5014396;28;20304;-66
2023/05/01 05:49:56;;;;;;;14.63;7.57;;;9.80;99.90;;;;;;4977001;28;20212;-65
2023/05/01 05:52:21;;;;;;;11.82;7.18;;;9.90;99.90;;;;;;5030884;28;20501;-64
2023/05/01 05:54:48;;;;;;;15.27;6.68;;;10.10;99.90;;;;;;5016517;28;20128;-65
2023/05/01 05:57:13;;;;;;;11.35;6.18;;;10.30;99.90;;;;;;5030749;28;20057;-64
2023/05/01 05:59:39;;;;;;;15.75;6.95;;;10.50;99.90;;;;;;4997808;28;21062;-64
2023/05/01 06:02:05;;;;;;;11.02;6.38;;;10.50;99.90;;;;;;4985227;28;20033;-65
2023/05/01 06:04:31;;;;;;;12.88;6.90;;;10.40;99.90;;;;;;4999646;28;20124;-64
2023/05/01 06:06:57;;;;;;;10.70;6.25;;;10.30;99.90;;;;;;4971086;28;20073;-65
2023/05/01 06:09:23;;;;;;;9.48;6.18;;;10.20;99.90;;;;;;4986778;28;20057;-65
2023/05/01 06:11:49;;;;;;;9.48;5.38;;;10.10;99.90;;;;;;5000424;28;20408;-65
2023/05/01 06:14:18;;;;;;;9.73;5.93;;;10.00;99.90;;;;;;4984893;28;20052;-64
2023/05/01 06:16:43;;;;;;;11.10;6.03;;;10.00;99.90;;;;;;4983086;28;20042;-65
2023/05/01 06:19:11;;;;;;;9.32;6.35;;;10.00;99.90;;;;;;4966653;28;20597;-65
2023/05/01 06:21:36;;;;;;;10.63;5.72;;;10.10;99.90;;;;;;5001865;28;20107;-65
2023/05/01 06:24:02;;;;;;;10.98;5.43;;;10.20;99.90;;;;;;4964117;28;20046;-65
2023/05/01 06:26:28;;;;;;;13.15;6.40;;;10.40;99.90;;;;;;4967973;28;20065;-65
2023/05/01 06:28:54;;;;;;;9.52;6.35;;;10.50;99.90;;;;;;5031577;28;20169;-65
2023/05/01 06:31:20;;;;;;;10.45;6.18;;;10.70;99.90;;;;;;5013826;28;20042;-65
2023/05/01 06:33:45;;;;;;;9.00;6.07;;;10.70;99.90;;;;;;4979484;28;20070;-65
2023/05/01 06:36:11;;;;;;;10.50;5.53;;;10.90;99.90;;;;;;5009402;28;20188;-65
2023/05/01 06:38:37;;;;;;;10.38;6.55;;;11.20;99.90;;;;;;5028066;28;20125;-64
2023/05/01 06:41:06;;;;;;;11.65;6.32;;;11.30;99.90;;;;;;4980741;28;20037;-65
2023/05/01 06:43:32;;;;;;;10.48;6.53;;;11.40;99.90;;;;;;4982084;28;20053;-65
2023/05/01 06:45:58;;;;;;;8.77;5.47;;;11.40;99.90;;;;;;4998173;28;20143;-64
2023/05/01 06:48:23;;;;;;;10.15;5.68;;;11.50;99.90;;;;;;4976618;28;21002;-66
2023/05/01 06:50:49;;;;;;;9.65;5.85;;;11.40;99.90;;;;;;5008397;28;20045;-64
2023/05/01 06:53:15;;;;;;;13.15;6.20;;;11.30;99.90;;;;;;5013332;28;20060;-65
2023/05/01 06:55:41;;;;;;;10.13;6.07;;;11.40;99.90;;;;;;4991970;28;20030;-65
2023/05/01 06:58:07;;;;;;;12.07;6.85;;;11.50;99.90;;;;;;4997668;28;20129;-64
2023/05/01 07:00:36;;;;;;;8.05;5.95;;;11.60;99.90;;;;;;4966974;28;20098;-65
2023/05/01 07:03:02;;;;;;;10.57;6.40;;;11.70;99.90;;;;;;4995672;28;20049;-66
2023/05/01 07:05:28;;;;;;;11.75;7.00;;;11.70;99.90;;;;;;4994331;28;20056;-65
2023/05/01 07:07:54;;;;;;;12.63;6.43;;;11.90;99.90;;;;;;5008925;28;20085;-65
2023/05/01 07:10:20;;;;;;;14.20;6.30;;;12.10;99.90;;;;;;5015724;28;20106;-65
2023/05/01 07:12:46;;;;;;;10.27;5.72;;;12.40;99.90;;;;;;4982146;28;20045;-65
2023/05/01 07:15:14;;;;;;;10.93;6.68;;;12.60;99.90;;;;;;5011478;28;20037;-65
2023/05/01 07:17:41;;;;;;;12.30;6.22;;;12.60;99.90;;;;;;5033523;28;20037;-65
2023/05/01 07:20:09;;;;;;;11.45;6.88;;;12.60;99.90;;;;;;5025515;28;20301;-65
2023/05/01 07:22:34;;;;;;;11.55;5.85;;;12.70;99.90;;;;;;4980471;28;20045;-65
2023/05/01 07:25:02;;;;;;;11.00;5.95;;;12.70;99.90;;;;;;4978870;28;20141;-66
2023/05/01 07:27:27;;;;;;;10.80;6.70;;;12.80;99.90;;;;;;4965637;28;20408;-65
2023/05/01 07:29:56;;;;;;;9.00;5.75;;;12.80;99.90;;;;;;4997221;28;20260;-65
2023/05/01 07:32:22;;;;;;;11.85;6.28;;;13.00;99.90;;;;;;5012225;28;20349;-65
2023/05/01 07:34:47;;;;;;;13.02;6.25;;;13.10;99.90;;;;;;4980673;28;20099;-65
2023/05/01 07:37:13;;;;;;;8.52;5.60;;;13.20;99.90;;;;;;4979497;28;20480;-64
2023/05/01 07:39:39;;;;;;;11.80;6.35;;;13.30;99.90;;;;;;5011606;28;20077;-64
2023/05/01 07:42:05;;;;;;;12.18;6.20;;;13.40;99.90;;;;;;4969166;28;20519;-64
2023/05/01 07:44:31;;;;;;;10.35;6.00;;;13.70;99.90;;;;;;4981491;28;21102;-65
2023/05/01 07:47:02;;;;;;;8.05;5.45;;;13.90;99.90;;;;;;5004672;28;20445;-64
2023/05/01 07:49:29;;;;;;;9.52;5.95;;;14.10;77.20;;;;;;4972884;28;20299;-64
2023/05/01 07:51:54;;;;;;;9.93;5.47;;;14.10;85.30;;;;;;4981042;28;20049;-64
2023/05/01 07:54:21;;;;;;;9.45;5.53;;;14.20;55.90;;;;;;4994937;28;20038;-65
2023/05/01 07:56:47;;;;;;;9.60;5.50;;;14.20;64.70;;;;;;4993257;28;20296;-63
2023/05/01 07:59:14;;;;;;;11.80;5.38;;;14.50;86.40;;;;;;4977335;28;20137;-64
2023/05/01 08:01:40;;;;;;;9.23;5.20;;;14.80;44.30;;;;;;5002768;28;20073;-64
2023/05/01 08:04:06;;;;;;;8.30;4.85;;;15.10;1.00;;;;;;4972034;28;20630;-64
2023/05/01 08:06:32;;;;;;;8.98;4.60;;;15.20;1.00;;;;;;4994801;28;20674;-64
2023/05/01 08:08:58;;;;;;;10.85;5.30;;;15.10;99.90;;;;;;4980950;28;20053;-64
2023/05/01 08:11:25;;;;;;;8.85;5.40;;;15.10;1.00;;;;;;4994883;28;20045;-63
2023/05/01 08:13:51;;;;;;;7.03;5.05;;;15.30;99.90;;;;;;4990705;28;20038;-64
2023/05/01 08:16:18;;;;;;;9.90;5.78;;;15.70;99.90;;;;;;4949822;28;20037;-67
2023/05/01 08:18:45;;;;;;;11.50;5.70;;;16.00;99.90;;;;;;5005379;28;20060;-63
2023/05/01 08:21:11;;;;;;;8.15;5.22;;;16.00;99.90;;;;;;4990266;28;20114;-64
2023/05/01 08:23:37;;;;;;;10.88;5.10;;;16.20;99.90;;;;;;5006990;28;20507;-63
2023/05/01 08:26:02;;;;;;;7.38;5.00;;;16.20;99.90;;;;;;4989411;28;20072;-64
2023/05/01 08:28:28;;;;;;;9.63;5.30;;;16.20;99.90;;;;;;4976821;28;20099;-64
2023/05/01 08:30:54;;;;;;;7.13;4.65;;;16.20;99.90;;;;;;4989143;28;20499;-63
2023/05/01 08:33:20;;;;;;;8.70;5.22;;;16.00;99.90;;;;;;5036899;28;20523;-65
2023/05/01 08:35:45;;;;;;;8.85;4.82;;;15.90;99.90;;;;;;4993380;28;20033;-64
2023/05/01 08:38:11;;;;;;;8.68;4.95;;;15.90;99.90;;;;;;5007426;28;20048;-66
2023/05/01 08:40:39;;;;;;;8.75;4.80;;;16.00;99.90;;;;;;5039698;28;20104;-63
2023/05/01 08:43:05;;;;;;;7.05;5.05;;;16.10;99.90;;;;;;5005337;28;20472;-63
2023/05/01 08:45:36;;;;;;;9.48;5.30;;;16.30;99.90;;;;;;5012552;28;21568;-65
2023/05/01 08:48:06;;;;;;;8.30;4.95;;;16.20;99.90;;;;;;5024625;28;20041;-65
2023/05/01 08:50:35;;;;;;;9.50;5.28;;;16.20;99.90;;;;;;5037953;28;20372;-65
2023/05/01 08:53:03;;;;;;;11.50;5.65;;;16.10;99.90;;;;;;5011096;28;20113;-65
2023/05/01 08:55:31;;;;;;;8.10;5.32;;;16.10;99.90;;;;;;5031485;28;20367;-64
2023/05/01 08:57:58;;;;;;;9.95;5.22;;;16.20;99.90;;;;;;4978963;28;20795;-64
2023/05/01 09:00:24;;;;;;;10.07;5.40;;;16.10;99.90;;;;;;4992540;28;20057;-66
2023/05/01 09:02:51;;;;;;;8.23;5.53;;;15.90;99.90;;;;;;4996343;28;20052;-65
2023/05/01 09:05:18;;;;;;;9.23;5.97;;;15.70;99.90;;;;;;4993213;28;20057;-65
2023/05/01 09:07:45;;;;;;;6.18;4.95;;;15.70;99.90;;;;;;4984246;28;20050;-65
2023/05/01 09:10:12;;;;;;;10.18;5.97;;;16.10;99.90;;;;;;4979015;28;20622;-66
2023/05/01 09:12:40;;;;;;;6.07;5.25;;;16.20;99.90;;;;;;4995464;28;20042;-65
2023/05/01 09:15:07;;;;;;;8.32;6.03;;;16.30;99.90;;;;;;4993766;28;20136;-65
2023/05/01 09:17:33;;;;;;;8.55;5.70;;;16.30;99.90;;;;;;4995363;28;20605;-65
2023/05/01 09:20:01;;;;;;;10.50;5.65;;;16.40;99.90;;;;;;4974117;28;20056;-66
2023/05/01 09:22:30;;;;;;;10.65;5.78;;;16.50;99.90;;;;;;4995486;28;20056;-65
2023/05/01 09:24:55;;;;;;;7.78;6.18;;;16.50;99.90;;;;;;5008081;28;20046;-65
2023/05/01 09:27:22;;;;;;;9.68;5.78;;;16.60;99.90;;;;;;5028197;28;20548;-65
2023/05/01 09:29:48;;;;;;;9.13;5.25;;;16.60;99.90;;;;;;4990163;28;20157;-66
2023/05/01 09:32:23;;;;;;;6.95;5.60;;;16.50;99.90;;;;;;4998485;28;20097;-65
2023/05/01 09:34:50;;;;;;;7.72;5.90;;;16.60;99.90;;;;;;4974991;28;20065;-65
2023/05/01 09:37:32;;;;;;;9.20;5.70;;;16.90;99.90;;;;;;5014279;28;20253;-65
2023/05/01 09:40:12;;;;;;;8.43;5.07;;;17.00;99.90;;;;;;5009636;28;20046;-65
2023/05/01 09:42:50;;;;;;;9.75;5.78;;;17.10;99.90;;;;;;5028371;28;20491;-65
2023/05/01 09:45:17;;;;;;;11.25;5.97;;;17.00;99.90;;;;;;5008595;28;20053;-66
2023/05/01 09:47:45;;;;;;;6.40;5.45;;;17.00;99.90;;;;;;5016336;28;20041;-65
2023/05/01 09:50:27;;;;;;;7.78;5.75;;;17.20;99.90;;;;;;5028064;28;20149;-66
2023/05/01 09:52:53;;;;;;;7.80;5.38;;;17.40;99.90;;;;;;4983223;28;20521;-65
2023/05/01 09:55:19;;;;;;;10.65;6.07;;;17.70;99.90;;;;;;4995782;28;20103;-66
2023/05/01 09:57:46;;;;;;;11.32;5.63;;;18.00;99.90;;;;;;5009210;28;20528;-66
2023/05/01 10:00:16;;;;;;;8.57;6.05;;;18.50;99.90;;;;;;4993914;28;20069;-67
2023/05/01 10:02:44;;;;;;;9.32;5.28;;;19.10;99.90;;;;;;5025729;28;20124;-66
2023/05/01 10:05:10;;;;;;;12.07;5.03;;;19.40;99.90;;;;;;4992977;28;20311;-66
2023/05/01 10:07:37;;;;;;;9.65;5.10;;;19.40;99.90;;;;;;5030055;28;20046;-66
2023/05/01 10:10:17;;;;;;;9.57;5.32;;;19.70;99.90;;;;;;4975935;28;20187;-66
2023/05/01 10:12:42;;;;;;;8.20;4.82;;;19.90;99.90;;;;;;5027544;28;20399;-66
2023/05/01 10:15:09;;;;;;;8.23;4.70;;;20.00;99.90;;;;;;4992192;28;20092;-66
2023/05/01 10:17:35;;;;;;;8.70;4.53;;;20.00;99.90;;;;;;4969079;28;20164;-66
2023/05/01 10:20:01;;;;;;;8.35;4.15;;;20.20;99.90;;;;;;5027867;28;20044;-66
2023/05/01 10:22:27;;;;;;;6.65;4.43;;;20.30;96.70;;;;;;5008166;28;20053;-67
2023/05/01 10:24:53;;;;;;;7.93;4.18;;;20.30;75.00;;;;;;4976628;28;20543;-66
2023/05/01 10:27:21;;;;;;;8.85;5.07;;;20.40;64.90;;;;;;4981800;28;20045;-66
2023/05/01 10:29:51;;;;;;;5.53;4.00;;;20.30;45.20;;;;;;4998710;28;20653;-67
2023/05/01 10:32:17;;;;;;;7.80;4.03;;;20.50;37.00;;;;;;5029957;28;20045;-64
2023/05/01 10:34:50;;;;;;;6.53;3.67;;;20.60;15.60;;;;;;4984670;28;20119;-64
2023/05/01 10:37:25;;;;;;;6.68;3.75;;;20.60;1.00;;;;;;5017849;28;20359;-64
2023/05/01 10:39:51;;;;;;;11.10;3.85;;;20.70;1.00;;;;;;5031075;28;20410;-66
2023/05/01 10:42:17;;;;;;;7.00;4.30;;;20.90;1.00;;;;;;4960186;28;20052;-65
2023/05/01 10:44:44;;;;;;;7.07;3.85;;;21.10;1.00;;;;;;5013363;28;20197;-65
2023/05/01 10:47:26;;;;;;;6.60;4.38;;;21.30;1.00;;;;;;5000794;28;20056;-65
2023/05/01 10:50:14;;;;;;;8.55;3.78;;;21.30;1.00;;;;;;4983128;28;20277;-65
2023/05/01 10:53:08;;;;;;;5.68;4.00;;;21.20;1.00;;;;;;4997080;28;20613;-65
2023/05/01 10:55:38;;;;;;;6.40;3.72;;;21.40;1.00;;;;;;4992274;28;20045;-68
2023/05/01 10:58:04;;;;;;;6.70;4.07;;;21.50;1.00;;;;;;5027665;28;20049;-65
2023/05/01 11:00:31;;;;;;;6.65;3.90;;;21.70;1.00;;;;;;4998929;28;20527;-65
2023/05/01 11:03:22;;;;;;;5.90;3.83;;;21.60;1.00;;;;;;4983454;28;20049;-65
2023/05/01 11:06:01;;;;;;;7.07;3.90;;;21.60;1.00;;;;;;4978923;28;20045;-65
2023/05/01 11:08:30;;;;;;;9.68;4.15;;;21.70;1.00;;;;;;5033381;28;20337;-66
2023/05/01 11:10:56;;;;;;;8.60;5.30;;;21.70;1.00;;;;;;5013230;28;20046;-66
2023/05/01 11:13:57;;;;;;;8.02;4.65;;;21.70;1.00;;;;;;4998948;28;20395;-66
2023/05/01 11:16:38;;;;;;;5.72;4.47;;;21.70;1.00;;;;;;4996811;28;20112;-66
2023/05/01 11:19:08;;;;;;;8.02;4.85;;;21.80;1.00;;;;;;5011585;28;20349;-66
2023/05/01 11:21:35;;;;;;;5.88;3.80;;;21.90;1.00;;;;;;4978971;28;20053;-65
2023/05/01 11:24:11;;;;;;;7.85;4.50;;;22.10;1.00;;;;;;4982688;28;20088;-67
2023/05/01 11:26:41;;;;;;;8.85;4.05;;;22.10;1.00;;;;;;5000990;28;20249;-65
2023/05/01 11:29:11;;;;;;;6.07;3.00;;;22.00;1.00;;;;;;4969518;28;20041;-65
2023/05/01 11:31:40;;;;;;;5.93;2.22;;;22.00;1.00;;;;;;5032272;28;20051;-66
2023/05/01 11:34:06;;;;;;;6.50;1.90;;;21.90;1.00;;;;;;5001499;28;20049;-69
2023/05/01 11:36:51;;;;;;;5.25;1.77;;;21.90;1.00;;;;;;4978710;28;20119;-67
2023/05/01 11:39:18;;;;;;;5.45;2.05;;;21.50;1.00;;;;;;4997901;28;20064;-66
2023/05/01 11:41:45;;;;;;;5.85;1.77;;;21.50;1.00;;;;;;5028482;28;20539;-66
2023/05/01 11:44:11;;;;;;;5.25;1.75;;;21.80;1.00;;;;;;5016098;28;20492;-65
2023/05/01 11:46:37;;;;;;;7.82;1.55;;;21.90;1.00;;;;;;5009470;28;20141;-66
2023/05/01 11:49:04;;;;;;;4.57;1.55;;;21.60;1.00;;;;;;5003008;28;20443;-66
2023/05/01 11:51:30;;;;;;;4.55;0.95;;;21.70;1.00;;;;;;5029121;28;20057;-66
2023/05/01 11:54:12;;;;;;;4.57;0.95;;;21.90;1.00;;;;;;4984612;28;20124;-65
2023/05/01 11:56:39;;;;;;;4.60;1.33;;;21.80;1.00;;;;;;4999702;28;20046;-66
2023/05/01 11:59:15;;;;;;;6.20;1.25;;;21.90;1.00;;;;;;4978856;28;20055;-66
2023/05/01 12:01:45;;;;;;;5.30;1.05;;;22.00;1.00;;;;;;4997960;28;20304;-68
2023/05/01 12:04:12;;;;;;;3.90;0.93;;;21.90;1.00;;;;;;5029704;28;20046;-66
2023/05/01 12:06:45;;;;;;;5.70;1.48;;;22.20;1.00;;;;;;4994859;28;20153;-66
2023/05/01 12:09:32;;;;;;;4.78;1.35;;;22.40;1.00;;;;;;4995272;28;20564;-66
2023/05/01 12:12:00;;;;;;;5.13;1.30;;;22.80;1.00;;;;;;4977948;28;20045;-67
2023/05/01 12:14:26;;;;;;;5.53;1.50;;;22.80;1.00;;;;;;4980303;28;20125;-65
2023/05/01 12:16:52;;;;;;;3.58;0.98;;;23.00;1.00;;;;;;4980322;28;20042;-66
2023/05/01 12:19:18;;;;;;;4.13;1.52;;;23.00;1.00;;;;;;4993894;28;20068;-67
2023/05/01 12:21:43;;;;;;;5.22;1.10;;;22.80;1.00;;;;;;5028507;28;20037;-66
2023/05/01 12:24:16;;;;;;;3.35;0.90;;;22.90;1.00;;;;;;4978499;28;20079;-66
2023/05/01 12:26:43;;;;;;;3.85;0.88;;;22.90;1.00;;;;;;5009750;28;20124;-66
2023/05/01 12:29:10;;;;;;;4.40;1.00;;;22.60;1.00;;;;;;5008020;28;20095;-67
2023/05/01 12:31:44;;;;;;;3.60;0.82;;;22.90;1.00;;;;;;4993662;28;20133;-66
2023/05/01 12:34:10;;;;;;;3.30;0.63;;;23.10;1.00;;;;;;4999231;28;20037;-66
2023/05/01 12:36:36;;;;;;;3.13;0.90;;;23.20;1.00;;;;;;5028010;28;20111;-66
2023/05/01 12:39:11;;;;;;;3.60;0.70;;;23.60;1.00;;;;;;5033411;28;20045;-66
2023/05/01 12:41:45;;;;;;;2.47;0.63;;;23.30;1.00;;;;;;4978406;28;20073;-66
2023/05/01 12:44:21;;;;;;;1.52;0.50;;;23.30;1.00;;;;;;5011664;28;20037;-66
2023/05/01 12:46:54;;;;;;;3.50;0.50;;;23.30;1.00;;;;;;4996307;28;20073;-66
2023/05/01 12:49:21;;;;;;;2.83;0.60;;;23.10;1.00;;;;;;4997508;28;20041;-66
2023/05/01 12:51:48;;;;;;;2.13;0.43;;;23.10;1.00;;;;;;5006625;28;20041;-66
2023/05/01 12:54:24;;;;;;;2.78;0.50;;;22.40;1.00;;;;;;4976782;28;20037;-66